Time;durP1;ratioP1;P1;durP2;ratioP2;P2;SDS_P1;SDS_P2;PMS_P1;PMS_P2;Temp;Humidity;BMP_temperature;BMP_pressure;BME280_temperature;BME280_humidity;BME280_pressure;Samples;Min_cycle;Max_cycle;Signal;HPM_P1;HPM_P2
2021/01/17 00:02:43;;;;;;;0.77;0.60;;;20.10;41.10;;;;;;6242999;28;20496;-48
2021/01/17 00:05:44;;;;;;;0.80;0.68;;;20.10;41.10;;;;;;6241989;28;20029;-48
2021/01/17 00:08:45;;;;;;;1.38;0.60;;;20.10;41.20;;;;;;6243380;28;20064;-46
2021/01/17 00:11:49;;;;;;;0.88;0.70;;;20.10;41.20;;;;;;6242834;28;20028;-50
2021/01/17 00:14:49;;;;;;;0.87;0.77;;;20.00;41.20;;;;;;6245735;28;20705;-47
2021/01/17 00:17:50;;;;;;;0.75;0.60;;;20.00;41.10;;;;;;6267783;28;20322;-46
2021/01/17 00:20:51;;;;;;;0.60;0.50;;;20.00;41.10;;;;;;6267460;28;20080;-48
2021/01/17 00:23:51;;;;;;;0.68;0.60;;;20.00;41.20;;;;;;6268168;28;20466;-48
2021/01/17 00:26:52;;;;;;;0.50;0.50;;;20.00;41.20;;;;;;6256504;28;20109;-47
2021/01/17 00:29:52;;;;;;;0.88;0.60;;;20.00;41.20;;;;;;6247951;28;20037;-46
2021/01/17 00:32:56;;;;;;;0.85;0.60;;;20.00;41.20;;;;;;6271384;28;20667;-50
2021/01/17 00:35:56;;;;;;;0.85;0.70;;;20.00;41.20;;;;;;6272515;28;20195;-46
2021/01/17 00:38:56;;;;;;;0.88;0.75;;;20.00;41.20;;;;;;6256835;28;20029;-47
2021/01/17 00:41:57;;;;;;;0.80;0.57;;;20.00;41.20;;;;;;6247305;28;20033;-50
2021/01/17 00:44:58;;;;;;;0.50;0.50;;;20.00;41.20;;;;;;6247605;28;20032;-47
2021/01/17 00:47:58;;;;;;;0.70;0.52;;;20.00;41.20;;;;;;6269546;28;20497;-52
2021/01/17 00:50:59;;;;;;;0.82;0.70;;;20.00;41.30;;;;;;6271935;28;20017;-47
2021/01/17 00:53:59;;;;;;;0.80;0.68;;;20.00;41.30;;;;;;6271782;28;20086;-46
2021/01/17 00:57:04;;;;;;;0.70;0.70;;;20.00;41.30;;;;;;6259159;28;20029;-46
2021/01/17 01:00:16;;;;;;;0.93;0.60;;;19.90;41.20;;;;;;6247302;28;20357;-47
2021/01/17 01:03:16;;;;;;;0.65;0.57;;;20.00;41.30;;;;;;6269190;28;20053;-46
2021/01/17 01:06:18;;;;;;;0.68;0.50;;;19.90;41.20;;;;;;6271656;28;20343;-47
2021/01/17 01:09:19;;;;;;;1.27;0.90;;;20.00;41.30;;;;;;6258500;28;20023;-49
2021/01/17 01:12:20;;;;;;;1.02;0.77;;;19.90;41.30;;;;;;6260227;28;20389;-50
2021/01/17 01:15:21;;;;;;;0.60;0.60;;;19.90;41.30;;;;;;6271685;28;20051;-50
2021/01/17 01:18:22;;;;;;;1.00;0.70;;;19.90;41.30;;;;;;6248050;28;20386;-47
2021/01/17 01:21:27;;;;;;;1.02;0.80;;;19.90;41.30;;;;;;6250391;28;20036;-49
2021/01/17 01:24:29;;;;;;;;;;;19.90;41.30;;;;;;6271741;28;20029;-46
2021/01/17 01:27:29;;;;;;;1.15;0.50;;;19.90;41.30;;;;;;6270922;28;19915;-46
2021/01/17 01:30:30;;;;;;;0.60;0.50;;;19.90;41.30;;;;;;6270888;28;20021;-52
2021/01/17 01:33:30;;;;;;;0.70;0.60;;;19.90;41.30;;;;;;6250021;28;20524;-48
2021/01/17 01:36:33;;;;;;;0.60;0.60;;;19.90;41.40;;;;;;6245849;28;20041;-47
2021/01/17 01:39:34;;;;;;;0.55;0.55;;;19.90;41.40;;;;;;6245890;28;20202;-47
2021/01/17 01:42:39;;;;;;;0.70;0.50;;;19.90;41.40;;;;;;6256847;28;20477;-50
2021/01/17 01:45:40;;;;;;;0.80;0.70;;;19.90;41.40;;;;;;6269206;28;20366;-48
2021/01/17 01:48:41;;;;;;;0.80;0.70;;;19.90;41.40;;;;;;6251441;28;20034;-47
2021/01/17 01:51:42;;;;;;;0.70;0.63;;;19.90;41.40;;;;;;6248275;28;20482;-48
2021/01/17 01:54:42;;;;;;;0.65;0.60;;;19.90;41.40;;;;;;6270767;28;20052;-46
2021/01/17 01:57:43;;;;;;;0.95;0.60;;;19.90;41.40;;;;;;6270695;28;20402;-46
2021/01/17 02:00:44;;;;;;;0.80;0.60;;;19.80;41.40;;;;;;6270645;28;20123;-47
2021/01/17 02:03:46;;;;;;;0.60;0.50;;;19.80;41.50;;;;;;6270192;28;20041;-47
2021/01/17 02:07:15;;;;;;;0.73;0.57;;;19.80;41.40;;;;;;6269508;28;20029;-47
2021/01/17 02:10:17;;;;;;;0.82;0.60;;;19.80;41.40;;;;;;6244355;28;20026;-49
2021/01/17 02:13:26;;;;;;;0.90;0.52;;;19.80;42.10;;;;;;6258226;28;20063;-48
2021/01/17 02:16:29;;;;;;;0.60;0.60;;;19.80;41.40;;;;;;6270317;28;20379;-46
2021/01/17 02:19:34;;;;;;;0.70;0.52;;;19.80;41.40;;;;;;6248217;28;20116;-47
2021/01/17 02:22:43;;;;;;;0.63;0.60;;;19.80;41.40;;;;;;6250447;28;20442;-46
2021/01/17 02:25:45;;;;;;;0.80;0.70;;;19.80;41.50;;;;;;6269987;28;20017;-46
2021/01/17 02:28:47;;;;;;;1.08;0.88;;;19.80;41.50;;;;;;6269806;28;20025;-47
2021/01/17 02:31:48;;;;;;;0.60;0.50;;;19.80;41.50;;;;;;6268561;28;20077;-46
2021/01/17 02:34:49;;;;;;;1.00;0.65;;;19.80;41.50;;;;;;6269775;28;20470;-48
2021/01/17 02:38:07;;;;;;;0.80;0.60;;;19.80;41.40;;;;;;6265983;28;20051;-51
2021/01/17 02:41:28;;;;;;;0.75;0.65;;;19.80;41.40;;;;;;6245202;28;20052;-48
2021/01/17 02:44:33;;;;;;;0.80;0.70;;;19.80;41.50;;;;;;6263494;28;20442;-47
2021/01/17 02:47:34;;;;;;;0.68;0.65;;;19.80;41.60;;;;;;6268619;28;20108;-50
2021/01/17 02:50:34;;;;;;;0.68;0.55;;;19.80;41.60;;;;;;6269336;28;20033;-49
2021/01/17 02:53:45;;;;;;;1.02;0.93;;;19.80;41.60;;;;;;6269820;28;20079;-46
2021/01/17 02:56:54;;;;;;;0.60;0.60;;;19.70;41.50;;;;;;6256397;28;20433;-48
2021/01/17 02:59:59;;;;;;;0.68;0.68;;;19.70;41.50;;;;;;6261899;28;20041;-46
2021/01/17 03:03:00;;;;;;;;;;;19.70;41.60;;;;;;6268143;28;20090;-46
2021/01/17 03:06:05;;;;;;;0.50;0.50;;;19.70;41.50;;;;;;6257152;28;19944;-46
2021/01/17 03:09:06;;;;;;;0.70;0.63;;;19.70;41.50;;;;;;6267347;28;20021;-49
2021/01/17 03:12:06;;;;;;;0.75;0.65;;;19.70;41.60;;;;;;6268875;28;20267;-47
2021/01/17 03:15:08;;;;;;;0.90;0.70;;;19.70;42.30;;;;;;6269045;28;20025;-51
2021/01/17 03:18:09;;;;;;;0.70;0.70;;;19.70;41.70;;;;;;6268953;28;20355;-46
2021/01/17 03:21:09;;;;;;;0.88;0.63;;;19.70;41.60;;;;;;6268707;28;20043;-46
2021/01/17 03:24:10;;;;;;;0.93;0.73;;;19.70;41.60;;;;;;6268546;28;20056;-48
2021/01/17 03:27:10;;;;;;;1.00;0.60;;;19.70;41.60;;;;;;6262760;28;20032;-50
2021/01/17 03:30:11;;;;;;;0.55;0.55;;;19.70;41.50;;;;;;6243023;28;20018;-49
2021/01/17 03:33:12;;;;;;;0.55;0.52;;;19.70;41.70;;;;;;6242144;28;20486;-50
2021/01/17 03:36:12;;;;;;;1.10;0.70;;;19.70;41.60;;;;;;6266768;28;20483;-49
2021/01/17 03:39:13;;;;;;;0.80;0.63;;;19.70;41.60;;;;;;6267411;28;20456;-50
2021/01/17 03:42:14;;;;;;;0.95;0.70;;;19.70;41.70;;;;;;6260870;28;20389;-49
2021/01/17 03:45:14;;;;;;;0.50;0.50;;;19.70;41.70;;;;;;6256750;28;20032;-56
2021/01/17 03:48:15;;;;;;;0.95;0.70;;;19.70;41.60;;;;;;6268016;28;20017;-56
2021/01/17 03:51:15;;;;;;;1.10;0.70;;;19.70;41.70;;;;;;6245690;28;20112;-53
2021/01/17 03:54:16;;;;;;;0.70;0.57;;;19.70;41.60;;;;;;6243060;28;20036;-50
2021/01/17 03:57:16;;;;;;;0.80;0.80;;;19.70;41.60;;;;;;6242659;28;20036;-50
2021/01/17 04:00:18;;;;;;;0.65;0.60;;;19.60;41.60;;;;;;6255188;28;20048;-49
2021/01/17 04:03:18;;;;;;;0.90;0.80;;;19.60;41.70;;;;;;6267215;28;20060;-52
2021/01/17 04:06:19;;;;;;;1.00;0.73;;;19.70;41.70;;;;;;6247155;28;20030;-53
2021/01/17 04:09:19;;;;;;;0.50;0.50;;;19.60;41.70;;;;;;6245559;28;20025;-50
2021/01/17 04:12:19;;;;;;;0.60;0.50;;;19.60;41.60;;;;;;6267544;28;20385;-54
2021/01/17 04:15:20;;;;;;;0.93;0.63;;;19.60;41.60;;;;;;6267050;28;20037;-51
2021/01/17 04:18:21;;;;;;;1.00;0.70;;;19.60;41.70;;;;;;6242561;28;20021;-53
2021/01/17 04:21:21;;;;;;;0.70;0.68;;;19.60;41.70;;;;;;6242626;28;20432;-53
2021/01/17 04:24:22;;;;;;;0.65;0.50;;;19.60;41.70;;;;;;6243637;28;20021;-54
2021/01/17 04:27:22;;;;;;;1.17;0.70;;;19.60;41.70;;;;;;6267454;28;20025;-51
2021/01/17 04:30:26;;;;;;;1.15;0.70;;;19.60;41.70;;;;;;6258425;28;20551;-51
2021/01/17 04:33:27;;;;;;;0.55;0.55;;;19.60;41.70;;;;;;6242741;28;20390;-48
2021/01/17 04:36:27;;;;;;;0.60;0.60;;;19.60;41.70;;;;;;6259394;28;20017;-52
2021/01/17 04:39:28;;;;;;;0.70;0.70;;;19.60;41.70;;;;;;6266981;28;20108;-52
2021/01/17 04:42:34;;;;;;;0.80;0.70;;;19.60;41.70;;;;;;6254783;28;20029;-53
2021/01/17 04:45:36;;;;;;;0.88;0.70;;;19.60;41.80;;;;;;6242321;28;20037;-50
2021/01/17 04:48:41;;;;;;;1.23;0.93;;;19.60;41.80;;;;;;6243001;28;20458;-50
2021/01/17 04:51:49;;;;;;;0.70;0.60;;;19.60;41.80;;;;;;6241988;28;20041;-50
2021/01/17 04:54:53;;;;;;;1.08;0.73;;;19.50;41.70;;;;;;6242355;28;20048;-49
2021/01/17 04:58:04;;;;;;;1.20;0.70;;;19.60;41.80;;;;;;6245906;28;20091;-52
2021/01/17 05:01:33;;;;;;;0.60;0.60;;;19.60;41.80;;;;;;6258496;28;20490;-51
2021/01/17 05:04:44;;;;;;;0.73;0.60;;;19.60;41.80;;;;;;6236372;28;20124;-50
2021/01/17 05:07:49;;;;;;;0.70;0.70;;;19.60;41.80;;;;;;6263384;28;20025;-52
2021/01/17 05:11:02;;;;;;;1.20;0.90;;;19.60;41.70;;;;;;6224617;28;20233;-51
2021/01/17 05:14:14;;;;;;;0.77;0.60;;;19.60;41.70;;;;;;6246684;28;20057;-51
2021/01/17 05:17:22;;;;;;;0.95;0.80;;;19.70;41.80;;;;;;6244927;28;20084;-51
2021/01/17 05:20:23;;;;;;;1.15;0.75;;;19.70;41.70;;;;;;6267325;28;20033;-50
2021/01/17 05:23:27;;;;;;;0.80;0.80;;;19.70;41.90;;;;;;6221921;28;20108;-49
2021/01/17 05:26:28;;;;;;;1.08;0.80;;;19.70;42.00;;;;;;6238073;28;20028;-52
2021/01/17 05:29:29;;;;;;;1.00;0.80;;;19.80;41.90;;;;;;6270718;28;20104;-51
2021/01/17 05:32:31;;;;;;;0.88;0.70;;;19.80;41.90;;;;;;6271065;28;20027;-52
2021/01/17 05:35:32;;;;;;;0.70;0.70;;;19.80;42.00;;;;;;6269552;28;20021;-49
2021/01/17 05:38:33;;;;;;;0.80;0.70;;;19.80;42.00;;;;;;6271105;28;20629;-52
2021/01/17 05:41:33;;;;;;;0.95;0.85;;;19.80;42.00;;;;;;6270410;28;20025;-52
2021/01/17 05:44:34;;;;;;;0.80;0.63;;;19.80;42.10;;;;;;6270608;28;20036;-51
2021/01/17 05:47:35;;;;;;;1.05;0.80;;;19.80;42.10;;;;;;6270290;28;20074;-56
2021/01/17 05:50:36;;;;;;;0.80;0.70;;;19.80;42.90;;;;;;6270444;28;20033;-55
2021/01/17 05:53:37;;;;;;;1.88;0.60;;;19.80;42.10;;;;;;6270175;28;20394;-51
2021/01/17 05:56:37;;;;;;;0.70;0.68;;;19.80;42.10;;;;;;6270383;28;20029;-52
2021/01/17 05:59:38;;;;;;;1.00;0.90;;;19.80;42.20;;;;;;6270308;28;20487;-54
2021/01/17 06:02:41;;;;;;;1.00;0.70;;;19.80;42.20;;;;;;6270067;28;20128;-49
2021/01/17 06:05:42;;;;;;;0.85;0.80;;;19.80;42.20;;;;;;6269935;28;20480;-51
2021/01/17 06:08:45;;;;;;;0.82;0.77;;;19.80;42.20;;;;;;6262227;28;20018;-51
2021/01/17 06:11:58;;;;;;;1.00;0.70;;;19.90;42.40;;;;;;6249359;28;20028;-50
2021/01/17 06:15:06;;;;;;;0.73;0.73;;;19.80;42.30;;;;;;6269999;28;20104;-51
2021/01/17 06:18:07;;;;;;;0.75;0.65;;;19.90;42.40;;;;;;6255544;28;20025;-50
2021/01/17 06:21:08;;;;;;;0.93;0.70;;;19.90;42.40;;;;;;6244910;28;20033;-49
2021/01/17 06:24:10;;;;;;;0.98;0.73;;;19.90;42.30;;;;;;6266109;28;20017;-51
2021/01/17 06:27:12;;;;;;;1.55;0.95;;;19.90;42.40;;;;;;6269149;28;20032;-52
2021/01/17 06:30:18;;;;;;;0.60;0.60;;;19.90;42.40;;;;;;6269426;28;20100;-52
2021/01/17 06:33:22;;;;;;;0.70;0.63;;;19.90;42.40;;;;;;6268531;28;20029;-51
2021/01/17 06:36:23;;;;;;;0.90;0.60;;;19.90;42.50;;;;;;6268005;28;20048;-52
2021/01/17 06:39:26;;;;;;;0.82;0.60;;;19.90;42.50;;;;;;6268974;28;20113;-54
2021/01/17 06:42:27;;;;;;;0.73;0.50;;;19.90;42.40;;;;;;6257143;28;20490;-50
2021/01/17 06:45:38;;;;;;;1.13;1.02;;;19.90;42.40;;;;;;6244655;28;20096;-50
2021/01/17 06:48:38;;;;;;;1.15;0.70;;;19.90;42.40;;;;;;6257313;28;20031;-50
2021/01/17 06:51:39;;;;;;;2.83;0.95;;;19.90;42.40;;;;;;6269007;28;20084;-53
2021/01/17 06:54:51;;;;;;;0.73;0.60;;;19.90;42.50;;;;;;6248357;28;20036;-51
2021/01/17 06:57:52;;;;;;;1.52;1.00;;;19.90;42.50;;;;;;6249510;28;20083;-51
2021/01/17 07:01:04;;;;;;;0.95;0.70;;;19.90;42.50;;;;;;6268655;28;20028;-53
2021/01/17 07:04:13;;;;;;;0.70;0.70;;;19.90;42.50;;;;;;6254697;28;20050;-54
2021/01/17 07:07:41;;;;;;;1.10;0.75;;;19.90;42.40;;;;;;6242397;28;20103;-52
2021/01/17 07:10:44;;;;;;;1.02;0.80;;;19.90;42.50;;;;;;6243563;28;20017;-51
2021/01/17 07:13:48;;;;;;;0.70;0.60;;;19.90;42.50;;;;;;6253771;28;20036;-51
2021/01/17 07:16:52;;;;;;;0.68;0.63;;;19.90;42.50;;;;;;6268786;28;20025;-49
2021/01/17 07:19:56;;;;;;;1.15;0.80;;;19.90;42.40;;;;;;6267958;28;20025;-51
2021/01/17 07:22:58;;;;;;;0.97;0.87;;;19.90;42.40;;;;;;6268389;28;20115;-53
2021/01/17 07:26:01;;;;;;;0.90;0.82;;;19.90;42.50;;;;;;6268474;28;20338;-53
2021/01/17 07:29:03;;;;;;;0.75;0.70;;;19.90;42.50;;;;;;6268492;28;20071;-49
2021/01/17 07:32:27;;;;;;;0.63;0.52;;;19.90;42.50;;;;;;6268055;28;20096;-48
2021/01/17 07:35:27;;;;;;;0.68;0.65;;;19.90;42.40;;;;;;6267515;28;20021;-51
2021/01/17 07:38:30;;;;;;;0.70;0.60;;;19.90;42.50;;;;;;6267973;28;20032;-52
2021/01/17 07:41:37;;;;;;;1.00;0.68;;;19.90;42.50;;;;;;6268263;28;20137;-54
2021/01/17 07:44:44;;;;;;;0.98;0.82;;;19.90;42.60;;;;;;6267507;28;20029;-53
2021/01/17 07:47:46;;;;;;;1.17;0.90;;;19.90;42.60;;;;;;6267952;28;20112;-48
2021/01/17 07:50:52;;;;;;;1.95;0.88;;;19.90;42.50;;;;;;6267814;28;20025;-54
2021/01/17 07:54:18;;;;;;;0.60;0.60;;;19.90;42.60;;;;;;6267821;28;20021;-48
2021/01/17 07:57:24;;;;;;;0.88;0.70;;;19.90;42.50;;;;;;6268106;28;20481;-49
2021/01/17 08:00:26;;;;;;;1.10;0.70;;;19.90;42.60;;;;;;6267566;28;20025;-48
2021/01/17 08:03:27;;;;;;;0.90;0.70;;;19.90;42.50;;;;;;6267088;28;20040;-51
2021/01/17 08:06:37;;;;;;;1.10;0.73;;;19.90;42.50;;;;;;6243083;28;20018;-47
2021/01/17 08:09:46;;;;;;;1.08;0.68;;;19.90;42.50;;;;;;6251807;28;20123;-49
2021/01/17 08:12:46;;;;;;;1.80;0.70;;;19.90;42.40;;;;;;6243099;28;20026;-50
2021/01/17 08:15:47;;;;;;;0.93;0.73;;;19.90;42.40;;;;;;6241408;28;20463;-47
2021/01/17 08:18:48;;;;;;;1.00;0.80;;;19.90;42.50;;;;;;6243823;28;20470;-48
2021/01/17 08:21:48;;;;;;;1.20;0.90;;;19.90;42.50;;;;;;6267367;28;20021;-48
2021/01/17 08:24:56;;;;;;;1.45;0.82;;;19.90;42.60;;;;;;6266963;28;20040;-53
2021/01/17 08:27:57;;;;;;;1.20;0.90;;;19.90;42.60;;;;;;6267483;28;20359;-49
2021/01/17 08:30:58;;;;;;;0.98;0.80;;;19.90;42.50;;;;;;6267108;28;20074;-52
2021/01/17 08:34:06;;;;;;;1.25;0.95;;;19.90;42.50;;;;;;6267062;28;20399;-49
2021/01/17 08:37:15;;;;;;;0.80;0.70;;;19.90;42.50;;;;;;6267240;28;20037;-47
2021/01/17 08:40:17;;;;;;;1.33;0.90;;;19.90;42.50;;;;;;6266900;28;20086;-50
2021/01/17 08:43:29;;;;;;;1.30;0.98;;;19.90;42.50;;;;;;6265872;28;20628;-47
2021/01/17 08:46:38;;;;;;;1.10;0.70;;;19.90;42.50;;;;;;6270027;28;20545;-51
2021/01/17 08:49:39;;;;;;;1.02;0.82;;;19.90;42.60;;;;;;6254592;28;20385;-47
2021/01/17 08:52:40;;;;;;;0.90;0.60;;;19.90;42.60;;;;;;6271934;28;20021;-48
2021/01/17 08:55:47;;;;;;;0.70;0.60;;;19.90;42.50;;;;;;6272052;28;20520;-49
2021/01/17 08:58:54;;;;;;;1.20;0.80;;;19.90;42.50;;;;;;6271595;28;20452;-48
2021/01/17 09:02:01;;;;;;;1.25;0.70;;;19.90;42.50;;;;;;6271697;28;20029;-47
2021/01/17 09:05:02;;;;;;;0.80;0.77;;;19.90;42.50;;;;;;6268731;28;20124;-47
2021/01/17 09:08:05;;;;;;;0.93;0.80;;;19.90;42.40;;;;;;6246795;28;20079;-48
2021/01/17 09:11:28;;;;;;;0.98;0.70;;;20.00;43.20;;;;;;6257554;28;20028;-51
2021/01/17 09:14:30;;;;;;;1.10;0.90;;;20.10;42.00;;;;;;6271360;28;20107;-47
2021/01/17 09:17:30;;;;;;;0.80;0.60;;;20.20;41.90;;;;;;6271349;28;20134;-49
2021/01/17 09:20:34;;;;;;;0.95;0.85;;;20.30;41.80;;;;;;6266537;28;20029;-49
2021/01/17 09:23:39;;;;;;;0.90;0.77;;;20.40;41.70;;;;;;6246337;28;20029;-49
2021/01/17 09:26:58;;;;;;;0.85;0.65;;;20.40;41.50;;;;;;6259522;28;20098;-47
2021/01/17 09:30:01;;;;;;;0.60;0.60;;;20.50;41.70;;;;;;6271146;28;20056;-52
2021/01/17 09:33:03;;;;;;;0.65;0.65;;;20.60;41.80;;;;;;6270860;28;20032;-48
2021/01/17 09:36:07;;;;;;;0.93;0.80;;;20.60;41.80;;;;;;6272954;28;20318;-52
2021/01/17 09:39:08;;;;;;;0.98;0.63;;;20.60;41.70;;;;;;6264584;28;20440;-49
2021/01/17 09:42:10;;;;;;;0.95;0.80;;;20.60;41.70;;;;;;6260911;28;20025;-50
2021/01/17 09:45:11;;;;;;;0.82;0.70;;;20.70;41.70;;;;;;6270642;28;20028;-54
2021/01/17 09:48:17;;;;;;;0.90;0.70;;;20.70;41.60;;;;;;6270504;28;20100;-52
2021/01/17 09:51:20;;;;;;;1.08;0.80;;;20.70;41.60;;;;;;6260776;28;20048;-48
2021/01/17 09:54:21;;;;;;;0.63;0.63;;;20.80;41.50;;;;;;6245979;28;20053;-50
2021/01/17 09:57:25;;;;;;;0.77;0.57;;;20.80;41.50;;;;;;6245945;28;20549;-49
2021/01/17 10:00:26;;;;;;;0.65;0.60;;;20.80;41.50;;;;;;6246696;28;20108;-55
2021/01/17 10:03:28;;;;;;;1.17;0.75;;;20.80;41.50;;;;;;6245307;28;20068;-52
2021/01/17 10:06:32;;;;;;;0.95;0.73;;;20.80;41.50;;;;;;6249925;28;20371;-54
2021/01/17 10:09:33;;;;;;;1.02;0.70;;;20.80;41.50;;;;;;6255122;28;20457;-51
2021/01/17 10:12:34;;;;;;;1.23;0.60;;;20.80;41.50;;;;;;6259222;28;20021;-53
2021/01/17 10:15:35;;;;;;;1.02;0.70;;;20.80;41.40;;;;;;6270080;28;20402;-51
2021/01/17 10:18:36;;;;;;;0.60;0.60;;;20.80;41.50;;;;;;6259849;28;20018;-51
2021/01/17 10:21:39;;;;;;;0.70;0.60;;;20.80;41.40;;;;;;6249057;28;20029;-55
2021/01/17 10:24:39;;;;;;;0.70;0.60;;;20.80;41.40;;;;;;6270057;28;20021;-52
2021/01/17 10:27:40;;;;;;;1.00;0.90;;;20.80;41.60;;;;;;6255480;28;20026;-51
2021/01/17 10:30:41;;;;;;;1.17;0.73;;;20.80;41.50;;;;;;6250253;28;20489;-55
2021/01/17 10:33:43;;;;;;;0.75;0.65;;;20.80;41.60;;;;;;6269285;28;20029;-55
2021/01/17 10:36:44;;;;;;;0.85;0.70;;;20.80;41.60;;;;;;6269081;28;20118;-52
2021/01/17 10:39:45;;;;;;;0.55;0.55;;;20.80;41.60;;;;;;6269631;28;20033;-53
2021/01/17 10:42:52;;;;;;;1.55;0.63;;;20.80;41.70;;;;;;6269040;28;20473;-56
2021/01/17 10:46:17;;;;;;;0.70;0.60;;;20.80;41.70;;;;;;6269144;28;20059;-54
2021/01/17 10:49:20;;;;;;;0.80;0.65;;;20.80;41.70;;;;;;6268714;28;20104;-54
2021/01/17 10:52:25;;;;;;;1.05;0.70;;;20.80;41.80;;;;;;6269040;28;20076;-51
2021/01/17 10:55:39;;;;;;;0.90;0.73;;;20.80;41.80;;;;;;6269185;28;20025;-54
2021/01/17 10:58:41;;;;;;;0.70;0.70;;;20.80;41.80;;;;;;6268661;28;20444;-51
2021/01/17 11:01:46;;;;;;;0.70;0.60;;;20.80;41.80;;;;;;6269564;28;20086;-54
2021/01/17 11:04:47;;;;;;;0.80;0.50;;;20.80;41.80;;;;;;6268735;28;20113;-53
2021/01/17 11:07:50;;;;;;;0.95;0.60;;;20.80;41.90;;;;;;6267338;28;20017;-54
2021/01/17 11:10:56;;;;;;;0.82;0.70;;;20.80;41.90;;;;;;6257070;28;20100;-50
2021/01/17 11:14:02;;;;;;;0.60;0.60;;;20.80;42.00;;;;;;6268589;28;20456;-56
2021/01/17 11:17:03;;;;;;;1.02;0.70;;;20.80;41.90;;;;;;6268331;28;20043;-53
2021/01/17 11:20:07;;;;;;;0.95;0.70;;;20.80;42.00;;;;;;6268312;28;20025;-55
2021/01/17 11:23:08;;;;;;;0.63;0.50;;;20.80;42.00;;;;;;6268695;28;20025;-54
2021/01/17 11:26:09;;;;;;;0.50;0.50;;;20.80;42.00;;;;;;6268768;28;20025;-49
2021/01/17 11:29:16;;;;;;;1.00;0.75;;;20.80;42.00;;;;;;6267872;28;20140;-52
2021/01/17 11:32:30;;;;;;;1.17;0.80;;;20.80;41.80;;;;;;6267136;28;20029;-54
2021/01/17 11:35:30;;;;;;;1.58;0.82;;;20.80;42.00;;;;;;6218998;28;20026;-51
2021/01/17 11:38:58;;;;;;;0.88;0.60;;;20.80;42.20;;;;;;6234244;28;20021;-54
2021/01/17 11:42:00;;;;;;;0.90;0.80;;;20.80;42.10;;;;;;6268235;28;20432;-52
2021/01/17 11:45:12;;;;;;;1.48;0.70;;;20.80;42.00;;;;;;6250879;28;20029;-53
2021/01/17 11:48:13;;;;;;;0.60;0.60;;;20.80;42.00;;;;;;6268013;28;20537;-52
2021/01/17 11:51:23;;;;;;;1.10;0.90;;;20.80;42.10;;;;;;6268097;28;20054;-53
2021/01/17 11:54:26;;;;;;;0.70;0.60;;;20.80;42.00;;;;;;6268095;28;20033;-51
2021/01/17 11:57:27;;;;;;;1.13;0.75;;;20.80;42.10;;;;;;6268252;28;20033;-55
2021/01/17 12:00:28;;;;;;;0.60;0.60;;;20.80;42.00;;;;;;6267846;28;20052;-51
2021/01/17 12:03:36;;;;;;;0.88;0.70;;;20.80;42.00;;;;;;6264617;28;20072;-57
2021/01/17 12:06:37;;;;;;;0.77;0.60;;;20.80;42.10;;;;;;6244340;28;20026;-54
2021/01/17 12:09:37;;;;;;;0.70;0.50;;;20.80;42.20;;;;;;6253039;28;20017;-53
2021/01/17 12:12:39;;;;;;;1.00;0.70;;;20.80;42.00;;;;;;6266487;28;20021;-56
2021/01/17 12:15:39;;;;;;;0.60;0.60;;;20.80;42.10;;;;;;6266198;28;20025;-52
2021/01/17 12:18:40;;;;;;;1.33;0.80;;;20.80;42.00;;;;;;6267535;28;20064;-51
2021/01/17 12:21:43;;;;;;;1.08;0.90;;;20.80;42.10;;;;;;6273180;28;20481;-56
2021/01/17 12:24:44;;;;;;;1.52;0.90;;;20.80;42.20;;;;;;6272656;28;20040;-54
2021/01/17 12:27:44;;;;;;;1.48;0.77;;;20.80;42.10;;;;;;6272455;28;20044;-56
2021/01/17 12:30:45;;;;;;;1.00;0.70;;;20.80;42.10;;;;;;6272647;28;20119;-54
2021/01/17 12:33:47;;;;;;;0.60;0.60;;;20.80;42.20;;;;;;6273174;28;20017;-57
2021/01/17 12:36:48;;;;;;;0.70;0.68;;;20.80;42.30;;;;;;6271315;28;20036;-51
2021/01/17 12:39:48;;;;;;;1.00;0.60;;;20.80;42.00;;;;;;6272078;28;20052;-53
2021/01/17 12:42:49;;;;;;;0.93;0.80;;;20.80;42.20;;;;;;6272463;28;20037;-52
2021/01/17 12:45:50;;;;;;;1.58;1.00;;;20.80;42.10;;;;;;6272178;28;20021;-54
2021/01/17 12:48:50;;;;;;;1.25;0.90;;;20.80;42.10;;;;;;6272106;28;20118;-53
2021/01/17 12:51:51;;;;;;;1.20;0.70;;;20.80;42.10;;;;;;6248581;28;20516;-53
2021/01/17 12:54:51;;;;;;;1.00;0.80;;;20.80;42.20;;;;;;6253838;28;20033;-54
2021/01/17 12:57:52;;;;;;;1.10;1.00;;;20.80;42.10;;;;;;6270727;28;20516;-54
2021/01/17 13:00:52;;;;;;;1.10;0.80;;;20.80;42.00;;;;;;6270203;28;20029;-53
2021/01/17 13:03:54;;;;;;;1.00;0.80;;;20.80;42.30;;;;;;6270061;28;20076;-53
2021/01/17 13:07:03;;;;;;;1.15;0.70;;;20.80;42.00;;;;;;6272259;28;20029;-52
2021/01/17 13:10:04;;;;;;;1.30;0.73;;;20.80;41.90;;;;;;6257870;28;20032;-54
2021/01/17 13:13:04;;;;;;;0.90;0.65;;;20.80;42.10;;;;;;6271272;28;20025;-56
2021/01/17 13:16:11;;;;;;;1.70;0.85;;;20.80;42.00;;;;;;6258153;28;20037;-54
2021/01/17 13:19:12;;;;;;;11.07;1.02;;;20.80;42.00;;;;;;6246235;28;20053;-58
2021/01/17 13:22:12;;;;;;;10.30;1.23;;;20.80;41.60;;;;;;6264981;28;20041;-66
2021/01/17 13:25:14;;;;;;;6.88;1.25;;;20.80;41.20;;;;;;6250079;28;20031;-55
2021/01/17 13:28:15;;;;;;;20.75;1.70;;;21.00;41.40;;;;;;6272085;28;20454;-57
2021/01/17 13:31:15;;;;;;;16.85;1.48;;;21.00;41.40;;;;;;6270281;28;20151;-56
2021/01/17 13:34:16;;;;;;;3.03;1.02;;;21.00;41.20;;;;;;6271171;28;20043;-57
2021/01/17 13:37:19;;;;;;;7.78;1.80;;;21.00;41.50;;;;;;6250998;28;20052;-57
2021/01/17 13:40:20;;;;;;;5.05;1.70;;;21.00;40.50;;;;;;6251771;28;20078;-55
2021/01/17 13:43:22;;;;;;;3.85;1.17;;;21.10;41.00;;;;;;6271214;28;20025;-57
2021/01/17 13:46:22;;;;;;;5.43;1.48;;;21.10;40.50;;;;;;6271174;28;20032;-55
2021/01/17 13:49:23;;;;;;;1.95;1.20;;;21.20;40.60;;;;;;6270540;28;20095;-55
2021/01/17 13:52:24;;;;;;;6.35;1.73;;;21.20;40.30;;;;;;6270649;28;20028;-57
2021/01/17 13:55:25;;;;;;;4.78;1.45;;;21.20;40.20;;;;;;6270758;28;20098;-58
2021/01/17 13:58:25;;;;;;;12.70;1.77;;;21.20;40.30;;;;;;6269944;28;20032;-57
2021/01/17 14:01:25;;;;;;;3.75;1.70;;;21.20;40.40;;;;;;6270600;28;20116;-54
2021/01/17 14:04:26;;;;;;;3.45;1.40;;;21.20;40.50;;;;;;6264724;28;20068;-54
2021/01/17 14:07:27;;;;;;;3.78;1.10;;;21.20;40.40;;;;;;6262839;28;20565;-57
2021/01/17 14:10:27;;;;;;;3.28;1.40;;;21.20;40.60;;;;;;6247752;28;20022;-56
2021/01/17 14:13:28;;;;;;;3.25;1.30;;;21.20;40.60;;;;;;6246026;28;20030;-54
2021/01/17 14:16:28;;;;;;;2.58;1.30;;;21.20;40.70;;;;;;6251721;28;20025;-56
2021/01/17 14:19:30;;;;;;;2.42;1.08;;;21.20;40.70;;;;;;6270061;28;20029;-54
2021/01/17 14:22:31;;;;;;;8.75;1.50;;;21.20;40.70;;;;;;6269759;28;20150;-56
2021/01/17 14:25:31;;;;;;;11.95;1.60;;;21.20;40.60;;;;;;6269886;28;20025;-58
2021/01/17 14:28:32;;;;;;;5.78;1.30;;;21.20;41.10;;;;;;6269786;28;20027;-58
2021/01/17 14:31:38;;;;;;;4.32;1.48;;;21.20;40.80;;;;;;6269896;28;20021;-53
2021/01/17 14:34:38;;;;;;;4.10;1.13;;;21.20;40.70;;;;;;6270202;28;20031;-54
2021/01/17 14:37:39;;;;;;;4.78;1.48;;;21.20;40.70;;;;;;6270052;28;20029;-56
2021/01/17 14:40:40;;;;;;;3.67;1.25;;;21.20;40.90;;;;;;6270116;28;20029;-56
2021/01/17 14:43:40;;;;;;;4.10;1.30;;;21.20;40.60;;;;;;6248322;28;20064;-56
2021/01/17 14:46:48;;;;;;;2.30;1.30;;;21.20;40.80;;;;;;6248376;28;20024;-53
2021/01/17 14:49:49;;;;;;;1.40;1.00;;;21.20;40.70;;;;;;6269254;28;20025;-53
2021/01/17 14:52:49;;;;;;;1.58;1.30;;;21.20;41.00;;;;;;6268933;28;20036;-51
2021/01/17 14:55:50;;;;;;;5.35;1.65;;;21.20;40.90;;;;;;6269437;28;20032;-56
2021/01/17 14:58:53;;;;;;;3.15;1.55;;;21.20;41.10;;;;;;6269091;28;20288;-55
2021/01/17 15:01:59;;;;;;;7.28;1.50;;;21.20;40.40;;;;;;6245611;28;20021;-55
2021/01/17 15:04:59;;;;;;;;;;;21.20;40.70;;;;;;6241650;28;20041;-54
2021/01/17 15:08:01;;;;;;;11.98;1.35;;;21.20;40.90;;;;;;6242168;28;19928;-53
2021/01/17 15:11:07;;;;;;;21.90;2.15;;;21.30;41.00;;;;;;6267078;28;20076;-50
2021/01/17 15:14:08;;;;;;;2.63;1.10;;;21.30;40.70;;;;;;6266348;28;20079;-54
2021/01/17 15:17:09;;;;;;;3.78;1.50;;;21.40;40.80;;;;;;6250527;28;20033;-55
2021/01/17 15:20:10;;;;;;;8.30;1.35;;;21.40;40.70;;;;;;6241742;28;20039;-55
2021/01/17 15:23:10;;;;;;;23.05;2.88;;;21.40;40.80;;;;;;6251477;28;20252;-55
2021/01/17 15:26:11;;;;;;;14.23;2.33;;;21.40;40.70;;;;;;6243297;28;20033;-53
2021/01/17 15:29:13;;;;;;;7.32;1.60;;;21.40;40.70;;;;;;6253441;28;20490;-58
2021/01/17 15:32:14;;;;;;;3.40;1.45;;;21.40;40.50;;;;;;6258925;28;20013;-56
2021/01/17 15:35:17;;;;;;;4.05;1.40;;;21.40;40.70;;;;;;6251017;28;20037;-54
2021/01/17 15:38:17;;;;;;;10.95;1.75;;;21.40;40.60;;;;;;6253426;28;20070;-56
2021/01/17 15:41:26;;;;;;;7.97;1.35;;;21.40;40.60;;;;;;6251937;28;20037;-52
2021/01/17 15:44:27;;;;;;;10.57;1.58;;;21.40;40.70;;;;;;6255235;28;20087;-56
2021/01/17 15:47:28;;;;;;;3.75;1.38;;;21.50;41.60;;;;;;6239171;28;20013;-55
2021/01/17 15:50:30;;;;;;;2.13;1.40;;;21.40;40.70;;;;;;6244308;28;20056;-53
2021/01/17 15:53:30;;;;;;;40.30;2.67;;;21.40;40.80;;;;;;6241268;28;20028;-58
2021/01/17 15:56:31;;;;;;;33.78;2.75;;;21.40;40.90;;;;;;6239802;28;20065;-54